Auburn, Indiana
Current Conditions -  °F | °C
As of 3:55 AM on Wednesday 26 Nov 2014 (Local Time) from KGWB Reporting Station
Overcast Overcast  
Wind Chill: 21°   Ceiling: 1500
Heat Index: 27°   Visibility: 10mi
Dew Point: 19°   Wind: 5mph
Humidity: 74%   Direction: 90°E
Pressure: 30.17"   Gusts: NA
Location:  41.37°N, 85.05°W
Report Text: KGWB 260855Z AUTO 09004KT 10SM OVC015 M03/M07 A3017 RMK AO2
Loading
Personal Weather Stations






























Interactive Weather Map New forecast layout! Learn more

10-Day Weather Forecast

Advertisements
Track Severe Weather on mobile